Latest Coastal Weather Observations for Cooktown

IDQ60701

Issued at 5:51 pm EST Wednesday 4 May 2016 (issued every 10 minutes, with the page automatically refreshed every 10 minutes)

About coastal observations | Map of coastal stations | Coastal observations for QLD | Marine services | Other Formats
Station Details ID: 031209 Name: COOKTOWN AIRPORT Lat: -15.45 Lon: 145.19 Height: 4.8 m
Data from the previous 72 hours. | See also: Recent months at Cooktown
Date/Time
EST
Temp

°C
Wind Pressure Rain
since 9am
mm
Weather Cloud Vis
km
Sea
Height
m
Swell
Dir
 
Speed
knots
Gust
knots
hPa Trend Height
m
Period
s
Dir
04/05:30pm 27.0 SE 7 10 1012.0 - 0.0 - Cloudy 10 - - - -
04/05:00pm 27.4 SE 8 12 1011.8 - 0.0 - Partly cloudy 10 - - - -
04/04:30pm 27.7 ESE 9 14 1011.7 - 0.0 - - 10 - - - -
04/04:00pm 28.8 SE 7 12 1011.4 - 0.0 - Partly cloudy 10 - - - -
04/03:30pm 28.3 ESE 8 14 1011.5 - 0.0 - Partly cloudy 10 - - - -
04/03:00pm 28.7 ESE 9 14 1011.5 - 0.0 - Mostly clear 10 - - - -
04/02:30pm 28.4 ESE 11 16 1011.9 - 0.0 - Partly cloudy 10 - - - -
04/02:00pm 28.4 ESE 12 17 1012.0 - 0.0 - Partly cloudy 10 - - - -
04/01:30pm 28.7 ESE 11 16 1012.4 - 0.0 - Partly cloudy 10 - - - -
04/01:00pm 29.3 SE 10 17 1012.8 - 0.0 - Partly cloudy 10 - - - -
04/12:30pm 28.4 SE 10 15 1013.4 - 0.0 - Partly cloudy 10 - - - -
04/12:00pm 28.9 ESE 10 14 1013.7 - 0.0 - Mostly clear 10 - - - -
04/11:30am 28.3 SE 10 15 1014.1 - 0.0 - Partly cloudy 10 - - - -
04/11:00am 28.1 SE 10 15 1014.3 - 0.0 - Partly cloudy 10 - - - -
04/10:30am 27.7 SE 10 16 1014.6 - 0.0 - Partly cloudy 10 - - - -
04/10:00am 27.9 SE 10 15 1014.9 - 0.0 - Partly cloudy 10 - - - -
04/09:30am 28.0 ESE 9 14 1014.7 - 0.0 - - 10 - - - -
04/09:00am 27.0 ESE 6 13 1014.6 R 0.0 Fine Mostly clear 35 - - - -
04/08:30am 25.4 WSW 1 4 1014.6 - 0.0 - - 10 - - - -
04/08:00am 23.8 NW 3 4 1014.2 - 0.0 - - 10 - - - -
04/07:30am 22.2 WNW 4 4 1014.1 - 0.0 - - 10 - - - -
04/07:00am 21.0 WNW 2 4 1013.8 - 0.0 - - 10 - - - -
04/06:30am 20.8 CALM 0 0 1013.4 - 0.0 - - 10 - - - -
04/06:00am 21.1 CALM 0 0 1013.0 - 0.0 - - 10 - - - -
04/05:30am 21.3 CALM 0 0 1012.6 - 0.0 - - 9 - - - -
04/05:00am 21.1 NW 4 5 1012.3 - 0.0 - - 10 - - - -
04/04:30am 21.7 CALM 0 0 1012.3 - 0.0 - Partly cloudy 10 - - - -
04/04:00am 22.0 CALM 0 0 1012.4 - 0.0 - Partly cloudy 10 - - - -
04/03:30am 22.1 CALM 0 0 1012.4 - 0.0 - Partly cloudy 10 - - - -
04/03:00am 22.3 CALM 0 4 1012.5 - 0.0 - Partly cloudy 10 - - - -
04/02:30am 22.5 CALM 0 3 1012.6 - 0.0 - Partly cloudy 10 - - - -
04/02:00am 22.8 CALM 0 0 1012.7 - 0.0 - Partly cloudy 10 - - - -
04/01:30am 23.2 CALM 0 0 1012.9 - 0.0 - Partly cloudy 10 - - - -
04/01:00am 23.4 CALM 0 0 1013.1 - 0.0 - Partly cloudy 9 - - - -
04/12:30am 23.4 CALM 0 0 1013.4 - 0.0 - Partly cloudy 10 - - - -
04/12:00am 23.9 CALM 0 0 1013.6 - 0.0 - Mostly cloudy 10 - - - -
 
Date/Time
EST
Temp

°C
Wind Pressure Rain
since 9am
mm
Weather Cloud Vis
km
Sea
Height
m
Swell
Dir
 
Speed
knots
Gust
knots
hPa Trend Height
m
Period
s
Dir
03/11:30pm 24.0 SSE 3 4 1013.9 - 0.0 - Partly cloudy 10 - - - -
03/11:00pm 24.0 CALM 0 0 1014.0 - 0.0 - Partly cloudy 10 - - - -
03/10:30pm 24.0 CALM 0 2 1014.2 - 0.0 - Partly cloudy 10 - - - -
03/10:00pm 23.8 CALM 0 0 1014.3 - 0.0 - Partly cloudy 10 - - - -
03/09:30pm 24.1 CALM 0 0 1014.2 - 0.0 - Partly cloudy 10 - - - -
03/09:00pm 24.7 ESE 1 4 1014.4 - 0.0 - Cloudy 10 - - - -
03/08:30pm 24.7 ESE 4 5 1014.0 - 0.0 - Partly cloudy 10 - - - -
03/08:00pm 25.0 ESE 6 7 1013.7 - 0.0 - - 10 - - - -
03/07:30pm 24.9 ESE 5 7 1013.0 - 0.0 - Partly cloudy 10 - - - -
03/07:00pm 25.0 ESE 5 6 1012.6 - 0.0 - - 10 - - - -
03/06:30pm 25.4 SSE 4 5 1012.3 - 0.0 - - 10 - - - -
03/06:00pm 25.8 ESE 5 8 1011.8 - 0.0 - - 10 - - - -
03/05:30pm 26.5 E 7 11 1011.5 - 0.0 - - 10 - - - -
03/05:00pm 27.1 E 8 14 1011.2 - 0.0 - - 10 - - - -
03/04:30pm 27.8 E 10 13 1011.0 - 0.0 - - 10 - - - -
03/04:00pm 27.8 E 11 13 1010.9 - 0.0 - - 10 - - - -
03/03:30pm 27.7 E 9 13 1011.1 - 0.0 - - 10 - - - -
03/03:00pm 28.2 E 11 13 1011.0 - 0.0 - - 10 - - - -
03/02:30pm 29.1 E 9 13 1011.2 - 0.0 - - 10 - - - -
03/02:00pm 29.2 ESE 7 10 1011.2 - 0.0 - - 10 - - - -
03/01:30pm 28.9 ESE 8 12 1011.5 - 0.0 - - 10 - - - -
03/01:00pm 28.7 ESE 9 13 1012.1 - 0.0 - - 10 - - - -
03/12:30pm 28.5 ESE 9 14 1012.7 - 0.0 - Partly cloudy 10 - - - -
03/12:00pm 28.2 SE 8 11 1013.1 - 0.0 - Mostly clear 10 - - - -
03/11:30am 28.9 ESE 7 11 1013.5 - 0.0 - Partly cloudy 10 - - - -
03/11:00am 28.1 ESE 8 12 1013.8 - 0.0 - Partly cloudy 10 - - - -
03/10:30am 27.5 ESE 9 11 1014.1 - 0.0 - Partly cloudy 10 - - - -
03/10:00am 28.2 ESE 10 14 1014.2 - 0.0 - - 10 - - - -
03/09:30am 27.2 SE 8 11 1014.2 - 0.0 - Partly cloudy 10 - - - -
03/09:00am 27.3 SE 7 11 1014.1 R 0.0 Haze Mostly clear 30 - - - -
03/08:30am 26.6 SSE 6 9 1013.9 - 0.0 - Partly cloudy 10 - - - -
03/08:00am 26.8 SE 5 8 1013.8 - 0.0 - Partly cloudy 10 - - - -
03/07:30am 26.2 SE 5 8 1013.6 - 0.0 - Partly cloudy 10 - - - -
03/07:07am 26.0 SE 5 6 1013.4 - 0.0 - Partly cloudy 10 - - - -
03/07:00am 25.7 SE 5 7 1013.4 - 0.0 - Partly cloudy 10 - - - -
03/06:30am 25.2 SE 5 6 1013.3 - 0.0 - Partly cloudy 10 - - - -
03/06:28am 25.2 SE 5 7 1013.3 - 0.0 - Partly cloudy 10 - - - -
03/06:00am 25.0 SE 6 7 1012.8 - 0.0 - - 10 - - - -
03/05:30am 25.2 SE 5 8 1012.6 - 0.0 - Partly cloudy 10 - - - -
03/05:00am 25.4 SE 5 7 1012.5 - 0.0 - Partly cloudy 10 - - - -
03/04:30am 25.3 ESE 6 8 1012.3 - 0.0 - Partly cloudy 10 - - - -
03/04:00am 25.5 ESE 7 9 1012.0 - 0.0 - Partly cloudy 10 - - - -
03/03:30am 25.6 ESE 7 12 1012.1 - 0.0 - - 10 - - - -
03/03:00am 25.7 SE 6 11 1012.2 - 0.0 - - 10 - - - -
03/02:30am 25.7 ESE 7 10 1012.4 - 0.0 - - 10 - - - -
03/02:00am 25.8 SE 5 7 1012.8 - 0.0 - Partly cloudy 10 - - - -
03/01:30am 25.7 SE 6 8 1013.1 - 0.0 - Partly cloudy 10 - - - -
03/01:00am 25.8 SE 6 9 1013.3 - 0.0 - - 10 - - - -
03/12:30am 25.9 SE 6 10 1013.7 - 0.0 - Partly cloudy 10 - - - -
03/12:00am 26.1 SE 6 9 1013.9 - 0.0 - Mostly cloudy 10 - - - -
 
Date/Time
EST
Temp

°C
Wind Pressure Rain
since 9am
mm
Weather Cloud Vis
km
Sea
Height
m
Swell
Dir
 
Speed
knots
Gust
knots
hPa Trend Height
m
Period
s
Dir
02/11:30pm 26.0 SE 7 11 1014.2 - 0.0 - Partly cloudy 10 - - - -
02/11:00pm 25.9 SE 5 10 1014.3 - 0.0 - - 10 - - - -
02/10:30pm 26.1 SE 6 9 1014.4 - 0.0 - Partly cloudy 10 - - - -
02/10:00pm 25.6 SE 4 5 1014.5 - 0.0 - Partly cloudy 10 - - - -
02/09:30pm 25.9 ESE 6 8 1014.5 - 0.0 - - 10 - - - -
02/09:00pm 25.9 SE 7 9 1014.4 - 0.0 - - 10 - - - -
02/08:30pm 25.9 SE 5 9 1014.3 - 0.0 - Partly cloudy 10 - - - -
02/08:00pm 25.7 SE 5 7 1014.1 - 0.0 - Partly cloudy 10 - - - -
02/07:30pm 25.8 SE 5 7 1013.8 - 0.0 - - 10 - - - -
02/07:00pm 25.8 SE 4 6 1013.4 - 0.0 - - 10 - - - -
02/06:30pm 26.1 SE 6 8 1013.0 - 0.0 - - 10 - - - -
02/06:00pm 26.4 ESE 6 9 1012.6 - 0.0 - - 10 - - - -
02/05:30pm 26.8 SE 8 12 1012.2 - 0.0 - - 10 - - - -
02/05:00pm 27.3 ESE 8 12 1011.9 - 0.0 - - 10 - - - -
02/04:30pm 27.8 SE 9 12 1011.7 - 0.0 - - 10 - - - -
02/04:00pm 27.7 ESE 10 15 1011.4 - 0.0 - Partly cloudy 10 - - - -
02/03:30pm 29.0 SE 9 14 1011.3 - 0.0 - Partly cloudy 10 - - - -
02/03:00pm 29.1 ESE 10 15 1011.4 - 0.0 - - 10 - - - -
02/02:30pm 29.6 ESE 11 17 1011.5 - 0.0 - Partly cloudy 10 - - - -
02/02:00pm 29.0 ESE 10 14 1011.7 - 0.0 - Partly cloudy 10 - - - -
02/01:30pm 28.8 ESE 10 15 1012.0 - 0.0 - Partly cloudy 10 - - - -
02/01:00pm 28.9 SE 11 17 1012.1 - 0.0 - Partly cloudy 10 - - - -
02/12:30pm 29.1 ESE 12 19 1012.5 - 0.0 - Partly cloudy 10 - - - -
02/12:00pm 28.0 ESE 11 17 1013.2 - 0.0 - Partly cloudy 10 - - - -
02/11:30am 28.2 SE 11 18 1013.5 - 0.0 - Partly cloudy 10 - - - -
02/11:17am 28.2 SE 10 17 1013.6 - 0.0 - Partly cloudy 10 - - - -
02/11:00am 28.6 SE 11 16 1013.7 - 0.0 - Partly cloudy 10 - - - -
02/10:30am 28.2 SE 10 17 1014.0 - 0.0 - Partly cloudy 10 - - - -
02/10:00am 28.4 SE 12 17 1014.3 - 0.0 - Partly cloudy 10 - - - -
02/09:30am 28.3 SE 10 16 1014.6 - 0.0 - Cloudy 10 - - - -
02/09:00am 28.6 SE 9 13 1014.4 R 0.2 Haze Mostly clear 25 - - - -
02/08:30am 28.1 SE 9 14 1014.1 - 0.2 - Partly cloudy 10 - - - -
02/08:00am 27.8 ESE 9 14 1014.1 - 0.2 - Partly cloudy 10 - - - -
02/07:40am 27.3 ESE 9 16 1013.9 - 0.2 - Partly cloudy 10 - - - -
02/07:30am 26.9 ESE 9 14 1013.9 - 0.2 - Partly cloudy 10 - - - -
02/07:14am 26.6 ESE 7 12 1013.7 - 0.2 - Partly cloudy 10 - - - -
02/07:00am 26.4 ESE 6 8 1013.6 - 0.2 - Partly cloudy 10 - - - -
02/06:39am 26.2 ESE 6 8 1013.5 - 0.2 - Partly cloudy 10 - - - -
02/06:30am 26.1 ESE 6 9 1013.4 - 0.2 - Partly cloudy 10 - - - -
02/06:00am 26.3 ESE 7 11 1013.2 - 0.2 - Cloudy 10 - - - -
02/05:30am 26.5 SE 6 12 1012.9 - 0.2 - Partly cloudy 10 - - - -
02/05:00am 26.4 SE 8 11 1012.6 - 0.2 - Partly cloudy 10 - - - -
02/04:30am 26.5 SE 9 14 1012.5 - 0.2 - Partly cloudy 10 - - - -
02/04:00am 26.6 SE 8 14 1012.4 - 0.2 - Partly cloudy 10 - - - -
02/03:30am 26.4 SE 8 13 1012.4 - 0.2 - Partly cloudy 10 - - - -
02/03:00am 26.5 SE 8 14 1012.6 - 0.2 - Mostly cloudy 10 - - - -
02/02:35am 26.6 SE 8 13 1012.7 - 0.2 - Partly cloudy 10 - - - -
02/02:30am 26.6 SE 9 15 1012.7 - 0.2 - Partly cloudy 10 - - - -
02/02:00am 26.7 SE 9 14 1013.0 - 0.2 - Partly cloudy 10 - - - -
02/01:38am 26.7 ESE 9 15 1013.0 - 0.2 - Partly cloudy 10 - - - -
02/01:30am 26.8 ESE 10 15 1013.1 - 0.2 - Partly cloudy 10 - - - -
02/01:00am 26.7 SE 9 14 1013.3 - 0.2 - Partly cloudy 10 - - - -
02/12:33am 26.6 SE 8 13 1013.5 - 0.2 - Partly cloudy 10 - - - -
02/12:30am 26.5 SE 8 13 1013.5 - 0.2 - Partly cloudy 10 - - - -
02/12:13am 26.5 SE 8 12 1013.9 - 0.2 - Partly cloudy 10 - - - -
02/12:12am 26.5 SE 8 12 1013.9 - 0.2 - Partly cloudy 10 - - - -
02/12:00am 26.5 SE 8 14 1014.0 - 0.2 - Cloudy 10 - - - -
 
Date/Time
EST
Temp

°C
Wind Pressure Rain
since 9am
mm
Weather Cloud Vis
km
Sea
Height
m
Swell
Dir
 
Speed
knots
Gust
knots
hPa Trend Height
m
Period
s
Dir
01/11:54pm 26.5 SE 8 13 1014.0 - 0.2 - Partly cloudy 10 - - - -
01/11:47pm 26.5 SE 8 11 1014.0 - 0.2 - Partly cloudy 10 - - - -
01/11:30pm 26.6 SE 8 12 1014.1 - 0.2 - Partly cloudy 10 - - - -
01/11:24pm 26.7 SE 8 12 1014.2 - 0.2 - Partly cloudy 10 - - - -
01/11:07pm 26.5 ESE 7 11 1014.3 - 0.2 - Partly cloudy 10 - - - -
01/11:00pm 26.6 SE 8 11 1014.3 - 0.2 - Partly cloudy 10 - - - -
01/10:30pm 26.7 SE 8 11 1014.4 - 0.2 - Partly cloudy 10 - - - -
01/10:28pm 26.7 SE 7 11 1014.4 - 0.2 - Partly cloudy 10 - - - -
01/10:00pm 26.5 SE 8 15 1014.4 - 0.2 - Partly cloudy 10 - - - -
01/09:30pm 26.6 SE 8 13 1014.4 - 0.2 - Partly cloudy 10 - - - -
01/09:15pm 26.6 SE 8 11 1014.4 - 0.2 - Partly cloudy 9 - - - -
01/09:00pm 26.5 SE 8 11 1014.3 - 0.2 - Cloudy 10 - - - -
01/08:43pm 26.5 SE 7 12 1014.2 - 0.2 - Partly cloudy 10 - - - -
01/08:30pm 26.5 SE 8 13 1014.0 - 0.2 - Partly cloudy 10 - - - -
01/08:10pm 26.4 SE 6 11 1014.1 - 0.2 - Partly cloudy 10 - - - -
01/08:00pm 26.3 SE 7 10 1014.0 - 0.2 - Partly cloudy 10 - - - -
01/07:30pm 26.3 SE 6 9 1013.7 - 0.2 - Partly cloudy 9 - - - -
01/07:00pm 26.7 SE 8 12 1013.4 - 0.2 - Partly cloudy 9 - - - -
01/06:30pm 26.8 SE 8 13 1013.1 - 0.2 - Partly cloudy 9 - - - -
01/06:00pm 27.0 SE 8 12 1012.7 - 0.2 - Partly cloudy 9 - - - -

Other Formats:

Comma delimited format used in spreadsheet applications
http://www.bom.gov.au/fwo/IDQ60701/IDQ60701.95283.axf

JavaScript Object Notation format (JSON) in row-major order
http://www.bom.gov.au/fwo/IDQ60701/IDQ60701.95283.json